Sunday, October 22, 2017, 5:05 PM EDT
Back to Local

KPSF, Pittsfield Municipal Airport

Location: Pittsfield, MA, United States Lat: 42.433
Local Time: 5:05 PM EDT (21:05 GMT) Lon: -73.283
Time Zone: US/Eastern Elev: 1194 ft

Show me the last for .
Show Decoded

2017-10-22 15:54 METAR KPSF 221954Z AUTO VRB03KT 10SM CLR 22/04 A3036 RMK AO2 SLP267 T02170044 =
2017-10-22 14:54 METAR KPSF 221854Z AUTO 17006KT 10SM CLR 22/04 A3035 RMK AO2 SLP263 T02170039 =
2017-10-22 13:54 METAR KPSF 221754Z AUTO 19006KT 10SM CLR 22/05 A3036 RMK AO2 SLP266 T02220050
                 10228 20044 56015 =
2017-10-22 12:54 METAR KPSF 221654Z AUTO 00000KT 10SM CLR 22/05 A3037 RMK AO2 SLP269 T02220050 =
2017-10-22 11:54 METAR KPSF 221554Z AUTO 00000KT 10SM CLR 19/06 A3039 RMK AO2 SLP279 T01890061 =
2017-10-22 10:54 METAR KPSF 221454Z AUTO 00000KT 10SM CLR 16/06 A3040 RMK AO2 SLP285 T01610056
                 58001 =
2017-10-22 09:54 METAR KPSF 221354Z AUTO 00000KT 10SM CLR 11/06 A3041 RMK AO2 SLP293 T01110061 =
2017-10-22 08:54 METAR KPSF 221254Z AUTO 00000KT 10SM CLR 08/07 A3042 RMK AO2 SLP295 T00830067 =
2017-10-22 07:54 METAR KPSF 221154Z AUTO 00000KT 10SM CLR 04/03 A3041 RMK AO2 SLP293 T00440033
                 10067 20039 53012 =
2017-10-22 06:54 METAR KPSF 221054Z AUTO 00000KT 10SM CLR 05/03 A3039 RMK AO2 SLP285 T00500033 =
2017-10-22 05:54 METAR KPSF 220954Z AUTO 00000KT 10SM CLR 05/04 A3038 RMK AO2 SLP281 T00500039 =
2017-10-22 04:54 METAR KPSF 220854Z AUTO 00000KT 8SM CLR 06/04 A3037 RMK AO2 SLP273 T00560044
                 53003 =
2017-10-22 03:54 METAR KPSF 220754Z AUTO 00000KT 10SM CLR 06/04 A3036 RMK AO2 SLP269 T00560044 =
2017-10-22 02:54 METAR KPSF 220654Z AUTO 00000KT 10SM CLR 06/04 A3036 RMK AO2 SLP268 T00610044 =
2017-10-22 01:54 METAR KPSF 220554Z AUTO 00000KT 10SM CLR 06/04 A3036 RMK AO2 SLP268 T00610044
                 10117 20056 50002 =
2017-10-22 00:54 METAR KPSF 220454Z AUTO 00000KT 10SM CLR 06/04 A3036 RMK AO2 SLP269 T00610044
                 402280028 =
2017-10-21 23:54 METAR KPSF 220354Z AUTO 00000KT 10SM CLR 08/04 A3035 RMK AO2 SLP266 T00780044 =
2017-10-21 22:54 METAR KPSF 220254Z AUTO 00000KT 10SM CLR 08/05 A3035 RMK AO2 SLP268 T00780050
                 51007 =
2017-10-21 21:54 METAR KPSF 220154Z AUTO 00000KT 10SM CLR 08/04 A3035 RMK AO2 SLP271 T00830044 =
2017-10-21 20:54 METAR KPSF 220054Z AUTO 00000KT 10SM CLR 10/04 A3034 RMK AO2 SLP269 T01000044 =
2017-10-21 19:54 METAR KPSF 212354Z AUTO 00000KT 10SM CLR 11/04 A3033 RMK AO2 SLP267 T01110044
                 10228 20111 53010 =
2017-10-21 18:54 METAR KPSF 212254Z AUTO 00000KT 10SM CLR 13/06 A3032 RMK AO2 SLP262 T01330056 =
2017-10-21 17:54 METAR KPSF 212154Z AUTO 00000KT 10SM CLR 17/08 A3031 RMK AO2 SLP257 T01670083 =

Support USWX by starting your Amazon purchase here.